Time;durP1;ratioP1;P1;durP2;ratioP2;P2;SDS_P1;SDS_P2;PMS_P1;PMS_P2;Temp;Humidity;BMP_temperature;BMP_pressure;BME280_temperature;BME280_humidity;BME280_pressure;Samples;Min_cycle;Max_cycle;Signal;HPM_P1;HPM_P2
2022/11/26 00:00:52;;;;;;;42.00;12.52;;;4.10;95.00;;;;;;5114777;27;20494;-90
2022/11/26 00:03:18;;;;;;;58.10;17.07;;;4.10;95.20;;;;;;5113886;27;20409;-90
2022/11/26 00:05:48;;;;;;;26.25;10.32;;;4.10;95.20;;;;;;5115628;27;20441;-91
2022/11/26 00:08:25;;;;;;;26.08;11.55;;;4.10;95.00;;;;;;5112694;27;20394;-90
2022/11/26 00:10:52;;;;;;;43.88;16.85;;;4.10;95.10;;;;;;5115743;27;20411;-90
2022/11/26 00:13:21;;;;;;;38.40;13.57;;;4.10;95.20;;;;;;5112974;27;20443;-90
2022/11/26 00:15:47;;;;;;;44.65;12.32;;;4.10;95.30;;;;;;5115066;27;20425;-90
2022/11/26 00:18:14;;;;;;;24.80;8.88;;;4.10;95.20;;;;;;5114202;27;20393;-89
2022/11/26 00:20:41;;;;;;;28.90;11.57;;;4.30;95.20;;;;;;5114161;27;20423;-90
2022/11/26 00:23:16;;;;;;;35.72;14.02;;;4.00;95.20;;;;;;5115506;27;20425;-90
2022/11/26 00:25:44;;;;;;;37.05;13.05;;;4.10;95.40;;;;;;5113200;27;20480;-90
2022/11/26 00:28:30;;;;;;;27.85;10.70;;;4.00;95.20;;;;;;5115046;27;20433;-89
2022/11/26 00:30:58;;;;;;;29.55;10.88;;;4.00;95.10;;;;;;5113001;27;20401;-89
2022/11/26 00:33:25;;;;;;;58.78;15.40;;;4.00;95.30;;;;;;5113705;27;20993;-90
2022/11/26 00:35:55;;;;;;;27.17;10.93;;;4.00;95.40;;;;;;5114526;27;20405;-89
2022/11/26 00:38:21;;;;;;;31.80;12.00;;;4.00;95.40;;;;;;5112698;27;20442;-89
2022/11/26 00:40:47;;;;;;;43.33;15.15;;;4.00;95.40;;;;;;5114715;27;20395;-90
2022/11/26 00:43:14;;;;;;;36.92;12.35;;;4.10;95.40;;;;;;5112127;27;20476;-89
2022/11/26 00:45:40;;;;;;;37.78;13.18;;;4.00;95.40;;;;;;5114583;27;20446;-89
2022/11/26 00:48:05;;;;;;;51.43;14.00;;;4.10;95.60;;;;;;5112079;27;20724;-90
2022/11/26 00:50:51;;;;;;;35.80;10.90;;;4.10;95.60;;;;;;5114092;27;20957;-88
2022/11/26 00:53:21;;;;;;;34.10;10.65;;;4.10;95.50;;;;;;5130839;27;20816;-90
2022/11/26 00:55:48;;;;;;;38.22;10.80;;;4.10;95.50;;;;;;5112142;27;20484;-89
2022/11/26 00:58:24;;;;;;;29.83;10.25;;;4.10;95.50;;;;;;5114200;27;20405;-89
2022/11/26 01:00:50;;;;;;;44.97;13.30;;;4.10;95.50;;;;;;5111636;27;20488;-89
2022/11/26 01:03:16;;;;;;;42.35;9.30;;;4.10;95.60;;;;;;5114645;27;20393;-89
2022/11/26 01:05:42;;;;;;;29.73;11.48;;;4.10;95.70;;;;;;5113200;27;20921;-90
2022/11/26 01:08:30;;;;;;;27.75;10.43;;;4.10;95.60;;;;;;5130374;27;20392;-90
2022/11/26 01:10:58;;;;;;;30.15;10.20;;;4.10;95.50;;;;;;5114667;27;20728;-91
2022/11/26 01:13:24;;;;;;;25.92;10.07;;;4.10;95.40;;;;;;5111381;27;20417;-91
2022/11/26 01:15:49;;;;;;;23.03;8.17;;;4.10;95.30;;;;;;5114184;27;20891;-90
2022/11/26 01:18:18;;;;;;;29.43;10.27;;;4.10;95.40;;;;;;5111801;27;20450;-88
2022/11/26 01:20:44;;;;;;;40.72;12.85;;;4.10;95.40;;;;;;5113876;27;20751;-90
2022/11/26 01:23:11;;;;;;;34.75;10.27;;;4.00;95.40;;;;;;5113038;27;20413;-91
2022/11/26 01:25:37;;;;;;;35.53;10.80;;;4.10;95.50;;;;;;5112350;27;20430;-92
2022/11/26 01:28:03;;;;;;;22.20;8.60;;;4.10;95.40;;;;;;5113569;27;20401;-90
2022/11/26 01:30:31;;;;;;;27.98;9.93;;;4.00;95.30;;;;;;5111238;27;20436;-90
2022/11/26 01:32:59;;;;;;;33.95;11.02;;;4.00;95.40;;;;;;5110523;27;20558;-91
2022/11/26 01:35:26;;;;;;;23.73;9.00;;;4.00;95.40;;;;;;5125107;27;20444;-91
2022/11/26 01:37:52;;;;;;;38.17;12.00;;;4.00;95.30;;;;;;5110629;28;20445;-89
2022/11/26 01:40:41;;;;;;;29.98;9.90;;;4.00;95.30;;;;;;5126183;27;20406;-89
2022/11/26 01:43:23;;;;;;;68.53;16.85;;;3.90;95.30;;;;;;5108072;28;20405;-90
2022/11/26 01:45:48;;;;;;;18.85;6.50;;;3.90;95.40;;;;;;5110531;28;20410;-89
2022/11/26 01:48:28;;;;;;;36.65;12.02;;;3.90;95.10;;;;;;5107686;28;20402;-90
2022/11/26 01:50:58;;;;;;;34.43;11.10;;;3.90;95.40;;;;;;5110143;28;20424;-90
2022/11/26 01:53:51;;;;;;;30.85;10.77;;;3.90;95.40;;;;;;5109741;28;20454;-89
2022/11/26 01:56:32;;;;;;;28.48;8.50;;;3.90;95.30;;;;;;5107906;28;20931;-91
2022/11/26 01:59:23;;;;;;;40.63;14.23;;;3.90;95.40;;;;;;5110275;28;20422;-90
2022/11/26 02:01:52;;;;;;;33.28;12.05;;;3.90;95.50;;;;;;5125469;28;20471;-89
2022/11/26 02:04:22;;;;;;;37.15;13.02;;;3.90;95.50;;;;;;5109308;28;20471;-91
2022/11/26 02:06:49;;;;;;;49.72;15.63;;;3.90;95.60;;;;;;5109960;28;20403;-90
2022/11/26 02:09:16;;;;;;;42.25;14.52;;;3.90;95.50;;;;;;5108347;28;20917;-89
2022/11/26 02:11:43;;;;;;;25.23;9.20;;;3.90;95.80;;;;;;5110396;28;20761;-90
2022/11/26 02:14:24;;;;;;;34.60;12.52;;;3.90;95.60;;;;;;5107599;28;20430;-92
2022/11/26 02:17:05;;;;;;;45.17;14.30;;;3.90;95.60;;;;;;5110272;28;20410;-90
2022/11/26 02:19:52;;;;;;;28.60;10.95;;;3.90;95.50;;;;;;5126464;28;20406;-90
2022/11/26 02:22:48;;;;;;;62.83;17.27;;;3.90;95.40;;;;;;5107677;28;20411;-90
2022/11/26 02:25:35;;;;;;;43.88;11.98;;;3.80;95.30;;;;;;5110086;28;20494;-90
2022/11/26 02:28:33;;;;;;;37.08;12.13;;;3.80;95.30;;;;;;5109357;28;20417;-89
2022/11/26 02:31:06;;;;;;;42.35;13.80;;;3.80;95.40;;;;;;5125242;27;20803;-90
2022/11/26 02:33:38;;;;;;;56.42;15.43;;;3.80;95.30;;;;;;5113619;27;20427;-90
2022/11/26 02:36:16;;;;;;;87.22;13.35;;;3.80;95.40;;;;;;5128662;27;20395;-89
2022/11/26 02:38:43;;;;;;;57.42;16.58;;;3.80;95.30;;;;;;5130428;27;20406;-90
2022/11/26 02:41:08;;;;;;;48.90;13.68;;;3.80;95.50;;;;;;5130092;27;20482;-89
2022/11/26 02:43:35;;;;;;;63.83;16.92;;;3.70;95.50;;;;;;5111960;27;20497;-90
2022/11/26 02:46:08;;;;;;;46.55;16.38;;;3.70;95.50;;;;;;5113515;27;20405;-90
2022/11/26 02:48:40;;;;;;;61.50;18.50;;;3.70;95.60;;;;;;5111354;27;20434;-90
2022/11/26 02:51:14;;;;;;;60.63;16.70;;;3.70;95.60;;;;;;5113768;27;20456;-91
2022/11/26 02:53:42;;;;;;;62.67;16.93;;;3.70;95.60;;;;;;5111564;27;20513;-90
2022/11/26 02:56:19;;;;;;;65.55;16.95;;;3.70;95.60;;;;;;5112797;27;20442;-91
2022/11/26 02:58:44;;;;;;;57.50;16.55;;;3.70;95.60;;;;;;5113691;27;20937;-89
2022/11/26 03:01:28;;;;;;;36.75;11.23;;;3.70;95.40;;;;;;5110336;27;20409;-88
2022/11/26 03:03:57;;;;;;;56.55;16.05;;;3.70;95.60;;;;;;5113780;27;20406;-90
2022/11/26 03:06:28;;;;;;;50.63;18.30;;;3.70;95.60;;;;;;5110893;27;20423;-90
2022/11/26 03:08:55;;;;;;;50.08;17.20;;;3.70;95.80;;;;;;5113352;27;20399;-91
2022/11/26 03:11:20;;;;;;;57.23;18.63;;;3.70;96.00;;;;;;5112003;27;20453;-89
2022/11/26 03:13:48;;;;;;;45.47;14.80;;;3.80;95.80;;;;;;5111335;27;20431;-90
2022/11/26 03:16:14;;;;;;;27.65;11.68;;;3.80;95.90;;;;;;5130070;27;20391;-89
2022/11/26 03:18:39;;;;;;;97.07;22.60;;;3.80;95.90;;;;;;5110218;27;20398;-90
2022/11/26 03:21:05;;;;;;;63.37;19.60;;;3.80;95.80;;;;;;5113125;27;20416;-90
2022/11/26 03:23:31;;;;;;;53.80;18.27;;;3.80;95.80;;;;;;5109674;27;20395;-89
2022/11/26 03:25:56;;;;;;;65.80;17.13;;;3.80;95.90;;;;;;5113075;27;20406;-90
2022/11/26 03:28:23;;;;;;;42.63;15.73;;;3.80;95.90;;;;;;5127983;27;20391;-89
2022/11/26 03:30:50;;;;;;;59.67;18.40;;;3.80;96.00;;;;;;5111606;27;20410;-90
2022/11/26 03:33:15;;;;;;;54.03;16.98;;;3.80;96.00;;;;;;5112032;27;20439;-90
2022/11/26 03:35:41;;;;;;;45.88;16.27;;;3.90;96.20;;;;;;5110288;27;20399;-91
2022/11/26 03:38:07;;;;;;;52.80;18.95;;;4.10;96.20;;;;;;5112887;27;20434;-90
2022/11/26 03:40:32;;;;;;;47.90;16.87;;;3.90;96.00;;;;;;5110058;27;20414;-89
2022/11/26 03:42:58;;;;;;;49.47;17.42;;;3.90;96.10;;;;;;5111857;27;20391;-90
2022/11/26 03:45:23;;;;;;;59.15;18.42;;;3.90;96.20;;;;;;5110065;27;20410;-89
2022/11/26 03:47:49;;;;;;;46.10;16.57;;;4.10;96.80;;;;;;5111986;27;20464;-89
2022/11/26 03:50:15;;;;;;;53.40;18.27;;;4.10;96.90;;;;;;5111348;27;20417;-89
2022/11/26 03:52:40;;;;;;;44.83;16.27;;;4.30;97.30;;;;;;5128124;27;20402;-91
2022/11/26 03:55:06;;;;;;;61.67;19.00;;;4.60;97.70;;;;;;5111820;27;20407;-89
2022/11/26 03:57:32;;;;;;;49.53;16.00;;;4.60;97.70;;;;;;5126593;27;20399;-89
2022/11/26 03:59:57;;;;;;;37.20;14.60;;;4.60;97.50;;;;;;5111900;27;20402;-90
2022/11/26 04:02:23;;;;;;;45.60;15.25;;;4.60;97.30;;;;;;5109481;27;20398;-89
2022/11/26 04:04:49;;;;;;;48.70;16.90;;;4.60;97.00;;;;;;5112612;27;20399;-90
2022/11/26 04:07:14;;;;;;;88.32;20.02;;;4.60;97.00;;;;;;5109557;27;20547;-90
2022/11/26 04:09:40;;;;;;;45.30;15.85;;;4.60;96.80;;;;;;5128428;27;20764;-90
2022/11/26 04:12:05;;;;;;;50.57;18.60;;;4.50;96.70;;;;;;5111628;27;20419;-90
2022/11/26 04:14:31;;;;;;;91.95;20.33;;;4.50;96.70;;;;;;5109806;27;20927;-89
2022/11/26 04:16:57;;;;;;;60.15;19.42;;;4.60;96.80;;;;;;5111629;27;20395;-89
2022/11/26 04:19:22;;;;;;;62.23;18.03;;;4.60;96.70;;;;;;5109346;27;20498;-90
2022/11/26 04:21:48;;;;;;;51.38;18.40;;;4.60;96.60;;;;;;5111540;27;20896;-90
2022/11/26 04:24:13;;;;;;;47.43;17.17;;;4.60;96.50;;;;;;5109082;27;20411;-90
2022/11/26 04:26:39;;;;;;;48.13;16.67;;;4.50;96.30;;;;;;5111718;27;20405;-91
2022/11/26 04:29:05;;;;;;;46.15;17.40;;;4.50;96.20;;;;;;5110111;27;20477;-88
2022/11/26 04:31:30;;;;;;;65.90;20.38;;;4.40;96.10;;;;;;5112953;27;20497;-89
2022/11/26 04:33:56;;;;;;;44.57;16.80;;;4.40;96.10;;;;;;5114595;27;20421;-89
2022/11/26 04:36:22;;;;;;;44.25;14.68;;;4.40;96.00;;;;;;5112372;27;20393;-90
2022/11/26 04:38:47;;;;;;;68.75;20.85;;;4.30;96.10;;;;;;5114939;27;20477;-90
2022/11/26 04:41:13;;;;;;;73.27;21.33;;;4.30;96.10;;;;;;5112182;27;20397;-90
2022/11/26 04:43:38;;;;;;;103.40;22.98;;;4.30;96.20;;;;;;5131492;27;20938;-90
2022/11/26 04:46:04;;;;;;;59.30;21.30;;;4.20;96.10;;;;;;5112678;27;20413;-90
2022/11/26 04:48:30;;;;;;;61.43;19.83;;;4.20;96.10;;;;;;5113660;27;20405;-90
2022/11/26 04:50:55;;;;;;;54.85;20.02;;;4.30;96.10;;;;;;5113980;27;20481;-90
2022/11/26 04:53:21;;;;;;;95.20;22.47;;;4.10;96.10;;;;;;5112346;27;20420;-90
2022/11/26 04:55:48;;;;;;;95.13;21.43;;;4.10;96.60;;;;;;5113323;27;20958;-91
2022/11/26 04:58:15;;;;;;;123.15;30.88;;;4.10;96.20;;;;;;5128996;27;20405;-90
2022/11/26 05:00:41;;;;;;;66.77;20.10;;;4.10;96.30;;;;;;5114320;27;20844;-90
2022/11/26 05:03:07;;;;;;;81.22;22.52;;;4.10;96.20;;;;;;5111645;27;20487;-89
2022/11/26 05:05:32;;;;;;;88.23;25.20;;;4.10;96.20;;;;;;5114360;27;21120;-90
2022/11/26 05:07:58;;;;;;;53.07;20.83;;;4.20;96.20;;;;;;5112462;27;20450;-90
2022/11/26 05:10:24;;;;;;;70.25;25.23;;;4.10;96.30;;;;;;5113267;27;20420;-90
2022/11/26 05:12:49;;;;;;;102.27;27.83;;;4.10;96.40;;;;;;5113571;27;20496;-89
2022/11/26 05:15:15;;;;;;;53.20;23.53;;;4.10;96.60;;;;;;5112291;27;20404;-88
2022/11/26 05:17:40;;;;;;;74.97;27.20;;;4.20;96.60;;;;;;5130723;27;20947;-90
2022/11/26 05:20:07;;;;;;;57.67;22.00;;;4.20;96.60;;;;;;5111254;27;20441;-89
2022/11/26 05:22:32;;;;;;;62.42;24.67;;;4.20;96.40;;;;;;5113356;27;20411;-89
2022/11/26 05:24:58;;;;;;;46.97;20.10;;;4.20;96.40;;;;;;5111682;27;20400;-89
2022/11/26 05:27:24;;;;;;;107.67;31.57;;;4.20;96.30;;;;;;5113467;27;20401;-90
2022/11/26 05:29:49;;;;;;;50.90;20.15;;;4.10;96.10;;;;;;5112707;27;20481;-88
2022/11/26 05:32:15;;;;;;;78.20;29.67;;;4.10;96.20;;;;;;5112096;27;20416;-89
2022/11/26 05:34:41;;;;;;;55.33;23.77;;;4.10;96.30;;;;;;5113404;27;20429;-89
2022/11/26 05:37:06;;;;;;;40.92;19.63;;;4.10;96.30;;;;;;5111328;27;20427;-89
2022/11/26 05:39:32;;;;;;;73.90;26.75;;;4.00;96.30;;;;;;5113889;27;20453;-90
2022/11/26 05:41:57;;;;;;;68.53;29.33;;;4.00;96.20;;;;;;5128283;27;20389;-89
2022/11/26 05:44:23;;;;;;;59.97;25.80;;;4.10;96.50;;;;;;5113807;27;20409;-89
2022/11/26 05:46:49;;;;;;;53.97;24.35;;;4.20;96.60;;;;;;5128638;27;20397;-89
2022/11/26 05:49:15;;;;;;;62.10;27.17;;;4.10;96.40;;;;;;5113186;27;20397;-90
2022/11/26 05:51:40;;;;;;;77.70;30.27;;;4.10;96.40;;;;;;5112930;27;20461;-88
2022/11/26 05:54:06;;;;;;;97.70;34.03;;;4.10;96.40;;;;;;5111124;27;20435;-90
2022/11/26 05:56:32;;;;;;;93.70;29.70;;;4.10;96.40;;;;;;5113634;27;20472;-90
2022/11/26 05:58:58;;;;;;;124.97;26.10;;;4.10;96.50;;;;;;5110935;27;20393;-90
2022/11/26 06:01:23;;;;;;;43.77;21.80;;;4.10;96.70;;;;;;5113496;27;20432;-89
2022/11/26 06:03:49;;;;;;;72.90;26.50;;;4.10;96.30;;;;;;5110677;27;20476;-89
2022/11/26 06:06:15;;;;;;;77.82;34.08;;;4.10;96.10;;;;;;5115665;27;20396;-91
2022/11/26 06:08:40;;;;;;;73.13;34.27;;;4.10;96.30;;;;;;5116425;27;20687;-89
2022/11/26 06:11:06;;;;;;;70.67;31.93;;;4.10;96.40;;;;;;5133797;27;20453;-90
2022/11/26 06:13:31;;;;;;;57.65;26.67;;;4.10;96.30;;;;;;5117659;27;20428;-90
2022/11/26 06:15:57;;;;;;;69.07;32.33;;;4.10;96.10;;;;;;5114952;27;20400;-89
2022/11/26 06:18:23;;;;;;;100.83;31.50;;;4.10;96.30;;;;;;5117284;27;20463;-89
2022/11/26 06:20:48;;;;;;;72.72;34.45;;;4.10;96.30;;;;;;5115342;27;20389;-89
2022/11/26 06:23:14;;;;;;;70.33;31.20;;;4.00;96.10;;;;;;5135036;27;20931;-90
2022/11/26 06:25:40;;;;;;;94.97;36.47;;;4.00;96.00;;;;;;5131906;27;20393;-90
2022/11/26 06:28:06;;;;;;;57.15;27.55;;;3.90;96.10;;;;;;5109661;27;20394;-91
2022/11/26 06:30:32;;;;;;;62.45;30.48;;;3.90;96.10;;;;;;5095761;27;20509;-89
2022/11/26 06:32:57;;;;;;;92.60;36.27;;;3.80;96.00;;;;;;5111875;27;20430;-89
2022/11/26 06:35:23;;;;;;;62.92;30.63;;;3.80;96.10;;;;;;5096424;27;20955;-90
2022/11/26 06:37:49;;;;;;;69.87;32.03;;;3.80;96.10;;;;;;5094320;27;20410;-89
2022/11/26 06:40:19;;;;;;;68.00;29.97;;;3.80;96.00;;;;;;5096926;27;20815;-90
2022/11/26 06:42:49;;;;;;;124.73;41.57;;;3.70;95.90;;;;;;5094444;27;20511;-91
2022/11/26 06:45:15;;;;;;;85.57;31.88;;;3.70;96.00;;;;;;5113545;27;20405;-90
2022/11/26 06:47:40;;;;;;;90.15;39.35;;;3.70;96.10;;;;;;5095105;27;20765;-89
2022/11/26 06:50:06;;;;;;;72.80;35.13;;;3.70;96.10;;;;;;5112121;27;20904;-91
2022/11/26 06:52:32;;;;;;;75.28;35.20;;;3.60;96.00;;;;;;5096465;27;20413;-90
2022/11/26 06:54:58;;;;;;;110.43;43.15;;;3.70;96.30;;;;;;5094168;27;20762;-89
2022/11/26 06:57:23;;;;;;;127.03;45.23;;;3.70;96.50;;;;;;5096277;27;21021;-89
2022/11/26 06:59:50;;;;;;;195.33;55.17;;;3.70;96.30;;;;;;5110771;27;20402;-90
2022/11/26 07:02:16;;;;;;;72.82;34.78;;;3.70;96.20;;;;;;5113037;27;20397;-90
2022/11/26 07:04:41;;;;;;;126.10;42.15;;;3.60;96.20;;;;;;5116400;27;20396;-88
2022/11/26 07:07:07;;;;;;;94.97;38.00;;;3.70;96.40;;;;;;5098905;27;20410;-88
2022/11/26 07:09:32;;;;;;;59.80;31.45;;;3.70;96.60;;;;;;5112128;27;20402;-87
2022/11/26 07:11:58;;;;;;;69.47;34.77;;;3.80;96.40;;;;;;5109583;27;20429;-89
2022/11/26 07:14:24;;;;;;;71.93;34.93;;;3.80;96.30;;;;;;5102250;27;20431;-90
2022/11/26 07:16:49;;;;;;;98.82;42.97;;;4.00;96.40;;;;;;5108995;28;20394;-89
2022/11/26 07:19:15;;;;;;;81.20;35.63;;;3.80;96.40;;;;;;5095715;27;20410;-88
2022/11/26 07:21:41;;;;;;;88.50;36.85;;;3.80;96.40;;;;;;5093189;27;20692;-89
2022/11/26 07:24:06;;;;;;;102.75;31.33;;;3.90;96.50;;;;;;5095870;27;20398;-87
2022/11/26 07:26:32;;;;;;;86.20;37.85;;;3.90;96.60;;;;;;5093747;27;20399;-89
2022/11/26 07:28:57;;;;;;;71.13;30.57;;;3.90;96.60;;;;;;5094655;27;20394;-90
2022/11/26 07:31:23;;;;;;;63.10;30.63;;;3.90;96.50;;;;;;5095154;27;20546;-89
2022/11/26 07:33:50;;;;;;;122.68;45.15;;;3.90;96.30;;;;;;5092977;27;20422;-89
2022/11/26 07:36:21;;;;;;;69.43;31.83;;;3.90;96.40;;;;;;5095378;27;20406;-89
2022/11/26 07:38:47;;;;;;;75.03;34.60;;;3.90;96.30;;;;;;5093244;27;20780;-90
2022/11/26 07:41:16;;;;;;;73.25;33.08;;;3.90;96.40;;;;;;5095503;27;20983;-90
2022/11/26 07:43:42;;;;;;;75.82;35.58;;;3.90;96.50;;;;;;5092967;27;20407;-89
2022/11/26 07:46:10;;;;;;;77.45;34.30;;;3.90;96.50;;;;;;5111685;27;20403;-90
2022/11/26 07:48:38;;;;;;;86.55;38.30;;;4.00;96.80;;;;;;5095264;27;20908;-88
2022/11/26 07:51:05;;;;;;;107.30;32.80;;;4.10;96.80;;;;;;5093187;27;20399;-89
2022/11/26 07:53:32;;;;;;;76.63;35.25;;;4.10;96.80;;;;;;5095162;27;20422;-90
2022/11/26 07:55:58;;;;;;;59.42;29.70;;;4.20;96.90;;;;;;5092450;27;20455;-89
2022/11/26 07:58:25;;;;;;;81.13;37.42;;;4.30;96.90;;;;;;5095165;27;20765;-89
2022/11/26 08:00:52;;;;;;;68.95;32.47;;;4.40;97.20;;;;;;5109456;27;21163;-90
2022/11/26 08:03:17;;;;;;;57.35;29.75;;;4.40;96.80;;;;;;5094652;27;20730;-90
2022/11/26 08:05:44;;;;;;;70.87;34.90;;;4.40;97.00;;;;;;5093863;27;20418;-90
2022/11/26 08:08:10;;;;;;;60.15;31.90;;;4.60;97.10;;;;;;5110216;27;20399;-89
2022/11/26 08:10:36;;;;;;;59.07;32.67;;;4.70;97.10;;;;;;5111996;27;20754;-89
2022/11/26 08:13:05;;;;;;;90.03;34.80;;;4.80;97.10;;;;;;5096224;27;20435;-90
2022/11/26 08:15:31;;;;;;;54.90;28.52;;;4.80;97.00;;;;;;5132498;27;20405;-90
2022/11/26 08:17:58;;;;;;;58.00;30.95;;;4.80;96.90;;;;;;5112401;27;20405;-90
2022/11/26 08:20:24;;;;;;;52.45;28.85;;;4.90;97.00;;;;;;5104442;27;21161;-89
2022/11/26 08:22:50;;;;;;;61.35;28.88;;;5.20;97.10;;;;;;5092826;27;20402;-89
2022/11/26 08:25:16;;;;;;;62.93;33.73;;;5.00;96.90;;;;;;5124989;27;20496;-89
2022/11/26 08:27:43;;;;;;;58.40;31.10;;;5.10;97.00;;;;;;5114201;27;20445;-90
2022/11/26 08:30:09;;;;;;;50.13;25.65;;;5.20;97.00;;;;;;5112014;27;20403;-89
2022/11/26 08:32:35;;;;;;;54.80;26.77;;;5.20;97.00;;;;;;5109650;27;20478;-90
2022/11/26 08:35:01;;;;;;;57.97;29.50;;;5.30;97.00;;;;;;5110050;27;20405;-90
2022/11/26 08:37:27;;;;;;;58.47;29.23;;;5.40;96.90;;;;;;5114516;27;20473;-90
2022/11/26 08:39:52;;;;;;;49.13;26.30;;;5.50;96.90;;;;;;5129392;27;20458;-90
2022/11/26 08:42:18;;;;;;;60.35;28.95;;;5.50;96.90;;;;;;5113649;27;20421;-90
2022/11/26 08:44:43;;;;;;;56.57;28.10;;;5.60;96.80;;;;;;5113484;27;20405;-89
2022/11/26 08:47:09;;;;;;;56.47;29.40;;;5.60;96.60;;;;;;5112513;27;20412;-89
2022/11/26 08:49:35;;;;;;;58.28;29.45;;;5.60;96.60;;;;;;5114146;27;20443;-91
2022/11/26 08:52:01;;;;;;;49.63;26.33;;;5.60;96.60;;;;;;5128801;27;20416;-90
2022/11/26 08:54:26;;;;;;;58.80;31.97;;;5.60;96.60;;;;;;5113825;27;20432;-90
2022/11/26 08:56:53;;;;;;;57.23;30.20;;;5.70;96.60;;;;;;5128057;27;20488;-89
2022/11/26 08:59:21;;;;;;;60.67;31.73;;;5.70;96.60;;;;;;5131642;27;20393;-90
2022/11/26 09:01:47;;;;;;;61.47;31.27;;;5.80;96.60;;;;;;5112290;27;20436;-90
2022/11/26 09:04:13;;;;;;;55.90;29.25;;;5.80;96.60;;;;;;5111163;27;20824;-89
2022/11/26 09:06:40;;;;;;;54.88;29.00;;;5.90;96.60;;;;;;5113241;27;20492;-89
2022/11/26 09:09:13;;;;;;;51.03;28.30;;;6.10;96.70;;;;;;5110644;27;20771;-89
2022/11/26 09:11:52;;;;;;;53.20;29.08;;;6.00;96.90;;;;;;5113257;27;20883;-89
2022/11/26 09:14:20;;;;;;;50.78;27.58;;;6.20;96.70;;;;;;5128680;27;20431;-90
2022/11/26 09:16:46;;;;;;;49.20;25.80;;;6.30;96.70;;;;;;5130689;27;20890;-89
2022/11/26 09:19:13;;;;;;;39.17;21.58;;;6.40;96.60;;;;;;5129774;27;20404;-88
2022/11/26 09:21:39;;;;;;;52.75;25.58;;;6.50;96.50;;;;;;5129530;27;20410;-90
2022/11/26 09:24:05;;;;;;;47.40;25.33;;;6.50;96.50;;;;;;5130633;27;20798;-89
2022/11/26 09:26:32;;;;;;;47.70;25.15;;;6.60;96.40;;;;;;5128367;27;20496;-90
2022/11/26 09:28:57;;;;;;;41.97;22.75;;;6.70;96.30;;;;;;5130452;27;20449;-89
2022/11/26 09:31:24;;;;;;;37.05;20.85;;;6.90;96.30;;;;;;5110364;27;20397;-89
2022/11/26 09:33:50;;;;;;;49.80;25.38;;;6.90;96.30;;;;;;5113211;27;20408;-90
2022/11/26 09:36:17;;;;;;;48.10;24.20;;;7.10;96.30;;;;;;5112015;27;20461;-88
2022/11/26 09:38:43;;;;;;;42.33;22.88;;;7.40;96.30;;;;;;5130025;27;20492;-89
2022/11/26 09:41:26;;;;;;;39.80;21.60;;;7.50;96.20;;;;;;5112493;27;20397;-89
2022/11/26 09:44:04;;;;;;;42.72;20.73;;;7.60;96.00;;;;;;5128570;27;20811;-89
2022/11/26 09:46:48;;;;;;;42.75;20.40;;;7.70;95.90;;;;;;5113500;27;20404;-90
2022/11/26 09:49:16;;;;;;;36.05;18.45;;;7.70;95.70;;;;;;5128833;27;20522;-89
2022/11/26 09:51:49;;;;;;;43.42;23.02;;;7.60;95.70;;;;;;5129651;27;20389;-89
2022/11/26 09:54:23;;;;;;;47.58;23.48;;;7.60;95.80;;;;;;5129261;27;20420;-89
2022/11/26 09:56:55;;;;;;;40.55;19.98;;;7.50;95.90;;;;;;5090242;28;20417;-89
2022/11/26 09:59:22;;;;;;;41.60;19.38;;;7.40;96.00;;;;;;5092684;28;20452;-89
2022/11/26 10:01:48;;;;;;;48.97;24.80;;;7.30;96.10;;;;;;5090559;28;20752;-90
2022/11/26 10:04:30;;;;;;;37.83;19.33;;;7.40;96.20;;;;;;5092273;28;20410;-89
2022/11/26 10:07:23;;;;;;;39.70;20.38;;;7.40;96.30;;;;;;5092018;28;20407;-90
2022/11/26 10:10:01;;;;;;;39.08;21.90;;;7.40;96.30;;;;;;5107639;28;20467;-89
2022/11/26 10:12:41;;;;;;;34.63;20.13;;;7.50;96.40;;;;;;5109829;28;20442;-90
2022/11/26 10:15:19;;;;;;;42.92;20.33;;;7.60;96.40;;;;;;5091703;28;20983;-90
2022/11/26 10:18:23;;;;;;;36.72;18.00;;;7.60;96.40;;;;;;5087392;28;20519;-89
2022/11/26 10:21:29;;;;;;;44.03;20.90;;;7.70;96.40;;;;;;5109552;28;20421;-90
2022/11/26 10:24:02;;;;;;;40.92;19.90;;;7.70;96.40;;;;;;5010155;28;20899;-87
2022/11/26 10:26:31;;;;;;;38.88;17.85;;;7.80;96.30;;;;;;5078430;28;20421;-90
2022/11/26 10:29:09;;;;;;;38.70;19.75;;;7.80;96.30;;;;;;5109679;28;20487;-89
2022/11/26 10:31:35;;;;;;;36.25;17.15;;;7.90;96.30;;;;;;5123968;28;20789;-89
2022/11/26 10:34:12;;;;;;;39.15;18.13;;;7.90;96.30;;;;;;5109018;28;20434;-89
2022/11/26 10:36:41;;;;;;;41.90;19.58;;;8.00;96.40;;;;;;5124932;28;20409;-89
2022/11/26 10:39:11;;;;;;;35.75;16.33;;;8.10;96.30;;;;;;5092147;28;20447;-89
2022/11/26 10:41:37;;;;;;;35.35;16.50;;;8.10;96.20;;;;;;5091505;28;20892;-89
2022/11/26 10:44:29;;;;;;;36.65;17.85;;;8.20;96.10;;;;;;5107397;28;20463;-89
2022/11/26 10:46:56;;;;;;;37.83;17.97;;;8.20;96.10;;;;;;5093825;28;20410;-90
2022/11/26 10:49:24;;;;;;;36.97;18.85;;;8.20;96.10;;;;;;5106941;28;20764;-91
2022/11/26 10:51:54;;;;;;;35.42;16.10;;;8.30;96.10;;;;;;5126396;27;20437;-89
2022/11/26 10:54:32;;;;;;;30.55;16.27;;;8.30;96.10;;;;;;5113651;27;20796;-90
2022/11/26 10:57:24;;;;;;;34.33;16.33;;;8.30;95.90;;;;;;5114401;27;20821;-89
2022/11/26 10:59:52;;;;;;;34.88;16.48;;;8.40;96.00;;;;;;5125321;27;20917;-88
2022/11/26 11:02:28;;;;;;;35.92;17.70;;;8.40;95.90;;;;;;5102015;27;20395;-88
2022/11/26 11:05:00;;;;;;;36.90;17.38;;;8.50;95.90;;;;;;5121283;27;20412;-89
2022/11/26 11:07:37;;;;;;;35.53;16.60;;;8.60;95.80;;;;;;5112405;27;20401;-88
2022/11/26 11:10:09;;;;;;;37.88;17.50;;;8.70;96.00;;;;;;5131256;27;20454;-90
2022/11/26 11:12:36;;;;;;;39.42;18.02;;;8.70;95.70;;;;;;5133516;27;20978;-90
2022/11/26 11:15:19;;;;;;;38.55;17.85;;;8.70;95.80;;;;;;5130537;27;20428;-91
2022/11/26 11:17:53;;;;;;;37.40;17.85;;;8.80;95.60;;;;;;5116073;27;20978;-90
2022/11/26 11:20:37;;;;;;;33.75;16.23;;;8.80;95.60;;;;;;5131507;27;20453;-89
2022/11/26 11:23:05;;;;;;;31.90;15.50;;;8.80;95.60;;;;;;5114256;27;20454;-90
2022/11/26 11:25:40;;;;;;;35.13;17.07;;;8.90;95.50;;;;;;5133146;27;20434;-90
2022/11/26 11:28:12;;;;;;;33.07;17.00;;;9.00;95.90;;;;;;5112941;27;20405;-90
2022/11/26 11:30:40;;;;;;;31.77;14.88;;;9.10;95.50;;;;;;5116441;27;20454;-92
2022/11/26 11:33:24;;;;;;;33.20;14.32;;;9.40;95.40;;;;;;5113810;27;20485;-89
2022/11/26 11:36:04;;;;;;;33.35;14.70;;;9.40;95.00;;;;;;5114191;27;20408;-90
2022/11/26 11:38:51;;;;;;;33.17;14.30;;;9.40;95.00;;;;;;5093633;27;20426;-90
2022/11/26 11:41:25;;;;;;;30.98;14.27;;;9.40;94.80;;;;;;5082118;27;20829;-89
2022/11/26 11:43:58;;;;;;;33.42;14.85;;;9.40;94.70;;;;;;5095433;27;20410;-92
2022/11/26 11:46:51;;;;;;;36.17;16.67;;;9.50;94.70;;;;;;5094968;27;20772;-90
2022/11/26 11:50:01;;;;;;;27.83;13.55;;;9.50;94.70;;;;;;5092690;27;20438;-90
2022/11/26 11:52:33;;;;;;;31.90;14.45;;;9.50;94.40;;;;;;5088203;27;20751;-91
2022/11/26 11:55:12;;;;;;;28.27;14.68;;;9.60;94.50;;;;;;5094207;27;20956;-91
2022/11/26 11:57:59;;;;;;;37.67;15.13;;;9.60;94.40;;;;;;5110418;27;20410;-91
2022/11/26 12:00:52;;;;;;;32.92;13.38;;;9.60;94.50;;;;;;5094457;27;20410;-89
2022/11/26 12:03:36;;;;;;;25.35;13.75;;;9.60;94.30;;;;;;5092757;27;21081;-90
2022/11/26 12:06:13;;;;;;;32.90;15.33;;;9.60;94.40;;;;;;5110724;27;20402;-91
2022/11/26 12:09:21;;;;;;;30.80;13.18;;;9.60;94.30;;;;;;5094412;27;20798;-89
2022/11/26 12:11:59;;;;;;;31.77;15.50;;;9.50;94.10;;;;;;5092308;27;20417;-90
2022/11/26 12:14:40;;;;;;;31.52;14.60;;;9.40;94.30;;;;;;5093926;27;20431;-90
2022/11/26 12:17:23;;;;;;;34.92;14.00;;;9.30;94.30;;;;;;5094677;27;20415;-90
2022/11/26 12:19:58;;;;;;;28.63;14.05;;;9.30;94.30;;;;;;5092040;27;20405;-90
2022/11/26 12:22:57;;;;;;;28.85;14.07;;;9.30;94.30;;;;;;5103487;27;20488;-89
2022/11/26 12:25:35;;;;;;;31.73;15.55;;;9.30;94.40;;;;;;5109578;27;20412;-91
2022/11/26 12:28:06;;;;;;;29.05;13.52;;;9.50;94.60;;;;;;5112629;27;20393;-90
2022/11/26 12:30:55;;;;;;;28.42;12.85;;;9.70;94.60;;;;;;5114279;27;20413;-89
2022/11/26 12:33:35;;;;;;;28.73;12.82;;;9.70;94.20;;;;;;5111881;27;20421;-89
2022/11/26 12:36:25;;;;;;;29.73;13.43;;;9.80;94.10;;;;;;5131505;27;20409;-90
2022/11/26 12:38:53;;;;;;;26.77;12.48;;;9.80;94.20;;;;;;5114483;27;20409;-91
2022/11/26 12:41:24;;;;;;;30.55;13.52;;;9.90;94.00;;;;;;5129152;27;20404;-91
2022/11/26 12:43:59;;;;;;;28.10;12.85;;;9.90;93.90;;;;;;5114791;27;20449;-89
2022/11/26 12:46:46;;;;;;;31.55;14.15;;;9.90;93.90;;;;;;5112290;27;20856;-91
2022/11/26 12:49:14;;;;;;;28.63;11.70;;;10.00;94.00;;;;;;5114159;27;20397;-91
2022/11/26 12:51:59;;;;;;;25.20;12.25;;;9.80;93.70;;;;;;5114544;27;20401;-90